Time;durP1;ratioP1;P1;durP2;ratioP2;P2;SDS_P1;SDS_P2;PMS_P1;PMS_P2;Temp;Humidity;BMP_temperature;BMP_pressure;BME280_temperature;BME280_humidity;BME280_pressure;Samples;Min_cycle;Max_cycle;Signal;HPM_P1;HPM_P2
2022/02/17 00:00:52;;;;;;;0.55;0.43;;;10.20;99.90;;;;;;5073919;28;20391;-72
2022/02/17 00:03:20;;;;;;;0.77;0.60;;;10.20;99.90;;;;;;5073238;28;20513;-71
2022/02/17 00:05:47;;;;;;;0.70;0.40;;;10.20;99.90;;;;;;5073885;28;20075;-71
2022/02/17 00:08:22;;;;;;;1.13;0.60;;;10.20;99.90;;;;;;5058348;28;20127;-71
2022/02/17 00:10:54;;;;;;;1.40;1.17;;;10.30;99.90;;;;;;5091755;28;20406;-71
2022/02/17 00:13:23;;;;;;;0.57;0.47;;;10.30;99.90;;;;;;5090011;28;20047;-71
2022/02/17 00:15:50;;;;;;;0.95;0.50;;;10.30;99.90;;;;;;5073772;28;20127;-71
2022/02/17 00:18:22;;;;;;;0.57;0.52;;;10.20;99.90;;;;;;5091589;28;20050;-71
2022/02/17 00:20:58;;;;;;;0.90;0.70;;;10.30;99.90;;;;;;5090601;28;20040;-71
2022/02/17 00:23:30;;;;;;;0.70;0.50;;;10.30;99.90;;;;;;5091150;28;20036;-71
2022/02/17 00:26:02;;;;;;;0.98;0.82;;;10.30;99.90;;;;;;5091662;28;20040;-71
2022/02/17 00:28:34;;;;;;;0.90;0.70;;;10.30;99.90;;;;;;5073529;28;20122;-71
2022/02/17 00:31:06;;;;;;;1.23;0.68;;;10.30;99.90;;;;;;5091468;28;20036;-71
2022/02/17 00:33:40;;;;;;;1.58;0.40;;;10.30;99.90;;;;;;5072498;28;20040;-71
2022/02/17 00:36:11;;;;;;;;;;;10.30;99.90;;;;;;5089822;28;20048;-71
2022/02/17 00:38:45;;;;;;;0.98;0.70;;;10.30;99.90;;;;;;5090225;28;19926;-71
2022/02/17 00:41:19;;;;;;;0.68;0.57;;;10.40;99.90;;;;;;5090285;28;20470;-71
2022/02/17 00:43:53;;;;;;;0.60;0.50;;;10.40;99.90;;;;;;5090836;28;20040;-71
2022/02/17 00:46:27;;;;;;;0.68;0.50;;;10.30;99.90;;;;;;5074334;28;20040;-71
2022/02/17 00:48:54;;;;;;;0.73;0.57;;;10.40;99.90;;;;;;5091212;28;20040;-71
2022/02/17 00:51:21;;;;;;;0.65;0.50;;;10.40;99.90;;;;;;5072734;28;20071;-71
2022/02/17 00:53:52;;;;;;;0.52;0.40;;;10.30;99.90;;;;;;5073643;28;20044;-71
2022/02/17 00:56:20;;;;;;;0.60;0.50;;;10.30;99.90;;;;;;5073082;28;20044;-71
2022/02/17 00:58:53;;;;;;;1.00;0.60;;;10.30;99.90;;;;;;5073031;28;20075;-71
2022/02/17 01:01:29;;;;;;;0.82;0.43;;;10.30;99.90;;;;;;5073128;28;20036;-71
2022/02/17 01:04:03;;;;;;;0.93;0.60;;;10.30;99.90;;;;;;5072343;28;20032;-71
2022/02/17 01:06:39;;;;;;;0.75;0.65;;;10.30;99.90;;;;;;5073109;28;20130;-71
2022/02/17 01:09:13;;;;;;;1.20;0.65;;;10.30;99.90;;;;;;5091193;28;20047;-71
2022/02/17 01:11:45;;;;;;;1.20;0.60;;;10.30;99.90;;;;;;5057010;28;20135;-71
2022/02/17 01:14:18;;;;;;;0.40;0.40;;;10.30;99.90;;;;;;5072605;28;20677;-71
2022/02/17 01:16:45;;;;;;;0.68;0.50;;;10.30;99.90;;;;;;5072794;28;20071;-71
2022/02/17 01:19:14;;;;;;;1.00;0.60;;;10.30;99.90;;;;;;5072812;28;20051;-71
2022/02/17 01:21:50;;;;;;;0.88;0.50;;;10.30;99.90;;;;;;5089764;28;20144;-71
2022/02/17 01:24:23;;;;;;;0.40;0.40;;;10.30;99.90;;;;;;5056639;28;20044;-71
2022/02/17 01:26:57;;;;;;;0.50;0.30;;;10.30;99.90;;;;;;5072855;28;20066;-71
2022/02/17 01:29:24;;;;;;;0.52;0.43;;;10.30;99.90;;;;;;5072849;28;20460;-71
2022/02/17 01:31:56;;;;;;;0.55;0.50;;;10.30;99.90;;;;;;5072547;28;20048;-71
2022/02/17 01:34:29;;;;;;;0.60;0.47;;;10.40;99.90;;;;;;5072472;28;20044;-71
2022/02/17 01:37:01;;;;;;;0.50;0.43;;;10.40;99.90;;;;;;5072761;28;20514;-71
2022/02/17 01:39:36;;;;;;;0.50;0.40;;;10.40;99.90;;;;;;5088414;28;20044;-71
2022/02/17 01:42:12;;;;;;;0.85;0.43;;;10.40;99.90;;;;;;5074239;28;20040;-71
2022/02/17 01:44:39;;;;;;;0.70;0.50;;;10.40;99.90;;;;;;5072252;28;20040;-71
2022/02/17 01:47:14;;;;;;;0.40;0.40;;;10.50;99.90;;;;;;5089407;28;20379;-71
2022/02/17 01:49:47;;;;;;;0.60;0.40;;;10.40;99.90;;;;;;5072565;28;20495;-71
2022/02/17 01:52:15;;;;;;;0.73;0.55;;;10.50;99.90;;;;;;5072422;28;20048;-71
2022/02/17 01:54:44;;;;;;;0.30;0.30;;;10.50;99.90;;;;;;5072204;28;20468;-71
2022/02/17 01:57:15;;;;;;;1.05;0.40;;;10.50;99.90;;;;;;5089332;28;20052;-71
2022/02/17 01:59:47;;;;;;;1.00;0.40;;;10.50;99.90;;;;;;5072110;28;20090;-71
2022/02/17 02:02:24;;;;;;;0.38;0.30;;;10.50;99.90;;;;;;5072548;28;20040;-71
2022/02/17 02:05:00;;;;;;;1.27;0.60;;;10.50;99.90;;;;;;5075487;28;20040;-71
2022/02/17 02:07:32;;;;;;;1.45;0.45;;;10.60;99.90;;;;;;5093622;28;20035;-71
2022/02/17 02:10:02;;;;;;;0.70;0.55;;;10.60;99.90;;;;;;5075400;28;20109;-71
2022/02/17 02:12:34;;;;;;;1.13;0.40;;;10.60;99.90;;;;;;5074829;28;20062;-71
2022/02/17 02:15:17;;;;;;;1.08;0.73;;;10.60;99.90;;;;;;5092102;28;20048;-71
2022/02/17 02:17:44;;;;;;;0.40;0.25;;;10.70;99.90;;;;;;5091959;28;20502;-71
2022/02/17 02:20:17;;;;;;;0.20;0.20;;;10.70;99.90;;;;;;5093389;28;20063;-71
2022/02/17 02:22:55;;;;;;;0.77;0.30;;;10.70;99.90;;;;;;5091444;28;20043;-71
2022/02/17 02:25:28;;;;;;;0.45;0.25;;;10.80;99.90;;;;;;5075189;28;20097;-71
2022/02/17 02:27:55;;;;;;;1.65;0.20;;;10.80;99.90;;;;;;5075082;28;20048;-71
2022/02/17 02:30:27;;;;;;;0.73;0.25;;;10.70;99.90;;;;;;5091901;28;20521;-71
2022/02/17 02:32:54;;;;;;;0.50;0.40;;;10.80;99.90;;;;;;5074376;28;20101;-71
2022/02/17 02:35:21;;;;;;;0.32;0.22;;;10.80;99.90;;;;;;5074846;28;20052;-71
2022/02/17 02:37:53;;;;;;;0.47;0.30;;;10.80;99.90;;;;;;5074497;28;20040;-71
2022/02/17 02:40:28;;;;;;;0.20;0.20;;;10.80;99.90;;;;;;5074867;28;20051;-71
2022/02/17 02:42:58;;;;;;;0.57;0.35;;;10.80;99.90;;;;;;5074382;28;20793;-71
2022/02/17 02:45:31;;;;;;;0.25;0.20;;;10.80;99.90;;;;;;5074582;28;20139;-71
2022/02/17 02:48:11;;;;;;;1.13;0.25;;;10.90;99.90;;;;;;5074725;28;20044;-71
2022/02/17 02:50:38;;;;;;;0.30;0.28;;;10.90;99.90;;;;;;5074545;28;20151;-71
2022/02/17 02:53:07;;;;;;;0.32;0.30;;;10.90;99.90;;;;;;5090897;28;20036;-71
2022/02/17 02:55:44;;;;;;;0.45;0.30;;;10.90;99.90;;;;;;5074517;28;20142;-71
2022/02/17 02:58:18;;;;;;;0.43;0.25;;;10.90;99.90;;;;;;5091423;28;20051;-71
2022/02/17 03:00:49;;;;;;;0.45;0.30;;;10.90;99.90;;;;;;5092576;28;20056;-71
2022/02/17 03:03:19;;;;;;;0.32;0.30;;;10.90;99.90;;;;;;5074263;28;20136;-71
2022/02/17 03:05:51;;;;;;;0.30;0.30;;;10.80;99.90;;;;;;5074335;28;20040;-71
2022/02/17 03:08:18;;;;;;;0.20;0.20;;;10.90;99.90;;;;;;5074305;28;20134;-72
2022/02/17 03:10:48;;;;;;;0.45;0.20;;;10.90;99.90;;;;;;5074336;28;20469;-71
2022/02/17 03:13:37;;;;;;;0.52;0.30;;;10.90;99.90;;;;;;5073086;28;20502;-71
2022/02/17 03:16:12;;;;;;;0.20;0.20;;;10.90;99.90;;;;;;5074100;28;20048;-71
2022/02/17 03:18:45;;;;;;;2.08;0.30;;;10.90;99.90;;;;;;5074039;28;20040;-71
2022/02/17 03:21:18;;;;;;;0.15;0.15;;;10.90;99.90;;;;;;5073886;28;20051;-71
2022/02/17 03:23:51;;;;;;;0.22;0.20;;;10.90;99.90;;;;;;5073705;28;20070;-71
2022/02/17 03:26:20;;;;;;;1.65;0.20;;;10.90;99.90;;;;;;5073938;28;20044;-71
2022/02/17 03:28:57;;;;;;;0.32;0.32;;;10.90;99.90;;;;;;5073793;28;20094;-71
2022/02/17 03:31:30;;;;;;;0.20;0.20;;;10.90;99.90;;;;;;5058116;28;20040;-71
2022/02/17 03:34:07;;;;;;;2.05;0.20;;;11.00;99.90;;;;;;5058172;28;20306;-71
2022/02/17 03:36:36;;;;;;;0.75;0.10;;;11.00;99.90;;;;;;5090746;28;20048;-71
2022/02/17 03:39:17;;;;;;;0.55;0.22;;;11.00;99.90;;;;;;5073636;28;20044;-71
2022/02/17 03:42:05;;;;;;;0.10;0.10;;;11.00;99.90;;;;;;5073508;28;20122;-71
2022/02/17 03:44:33;;;;;;;1.25;0.10;;;11.00;99.90;;;;;;5073076;28;20503;-71
2022/02/17 03:47:25;;;;;;;0.52;0.10;;;11.00;99.90;;;;;;5076780;28;20052;-71
2022/02/17 03:50:08;;;;;;;0.30;0.20;;;11.10;99.90;;;;;;5073483;28;20044;-71
2022/02/17 03:52:42;;;;;;;0.10;0.10;;;11.10;99.90;;;;;;5073094;28;20052;-71
2022/02/17 03:55:17;;;;;;;0.20;0.20;;;11.10;99.90;;;;;;5073370;28;20093;-71
2022/02/17 03:57:46;;;;;;;0.55;0.30;;;11.00;99.90;;;;;;5089966;28;20075;-71
2022/02/17 04:00:23;;;;;;;0.15;0.15;;;11.10;99.90;;;;;;5073281;28;20066;-71
2022/02/17 04:02:56;;;;;;;0.13;0.13;;;11.10;99.90;;;;;;5089532;28;20036;-71
2022/02/17 04:05:31;;;;;;;0.35;0.30;;;11.00;99.90;;;;;;5073258;28;20089;-71
2022/02/17 04:08:04;;;;;;;0.30;0.20;;;11.10;99.90;;;;;;5073153;28;20043;-71
2022/02/17 04:10:39;;;;;;;0.52;0.20;;;11.00;99.90;;;;;;5074638;28;20165;-71
2022/02/17 04:13:18;;;;;;;0.20;0.20;;;11.10;99.90;;;;;;5072526;28;20036;-71
2022/02/17 04:15:50;;;;;;;0.30;0.20;;;11.00;99.90;;;;;;5073057;28;20044;-71
2022/02/17 04:18:31;;;;;;;0.10;0.10;;;11.00;99.90;;;;;;5090097;28;20101;-71
2022/02/17 04:21:10;;;;;;;0.30;0.20;;;11.00;99.90;;;;;;5073537;28;20044;-71
2022/02/17 04:23:49;;;;;;;0.20;0.20;;;11.00;99.90;;;;;;5073033;28;20051;-71
2022/02/17 04:26:25;;;;;;;0.10;0.10;;;11.00;99.90;;;;;;5090451;28;20097;-71
2022/02/17 04:29:07;;;;;;;1.25;0.20;;;11.00;99.90;;;;;;5073295;28;20044;-71
2022/02/17 04:31:44;;;;;;;0.10;0.10;;;11.00;99.90;;;;;;5058123;28;20043;-71
2022/02/17 04:34:17;;;;;;;0.10;0.10;;;11.00;99.90;;;;;;5072891;28;20040;-71
2022/02/17 04:36:49;;;;;;;0.20;0.20;;;11.00;99.90;;;;;;5091525;28;20117;-71
2022/02/17 04:39:22;;;;;;;0.20;0.20;;;11.00;99.90;;;;;;5073399;28;20052;-72
2022/02/17 04:44:34;;;;;;;0.20;0.13;;;10.90;99.90;;;;;;5072901;28;20074;-71
2022/02/17 04:47:06;;;;;;;0.22;0.20;;;10.90;99.90;;;;;;5073293;28;20051;-71
2022/02/17 04:49:38;;;;;;;0.10;0.10;;;10.90;99.90;;;;;;5072972;28;20047;-71
2022/02/17 04:52:10;;;;;;;0.20;0.10;;;11.00;99.90;;;;;;5072660;28;20098;-71
2022/02/17 04:54:42;;;;;;;0.17;0.17;;;11.00;99.90;;;;;;5071624;28;20131;-71
2022/02/17 04:57:15;;;;;;;0.30;0.20;;;11.00;99.90;;;;;;5089310;28;20040;-71
2022/02/17 04:59:49;;;;;;;0.10;0.10;;;10.90;99.90;;;;;;5072503;28;20043;-71
2022/02/17 05:02:21;;;;;;;0.43;0.20;;;11.00;99.90;;;;;;5072159;28;20051;-71
2022/02/17 05:05:09;;;;;;;0.20;0.20;;;11.00;99.90;;;;;;5014232;28;20041;-71
2022/02/17 05:07:36;;;;;;;0.20;0.20;;;11.00;99.90;;;;;;5063040;28;20075;-71
2022/02/17 05:10:08;;;;;;;0.15;0.10;;;11.00;99.90;;;;;;5090580;28;20046;-71
2022/02/17 05:12:45;;;;;;;1.27;0.10;;;11.00;99.90;;;;;;5060251;28;20040;-72
2022/02/17 05:15:18;;;;;;;0.47;0.20;;;11.00;99.90;;;;;;5073024;28;20068;-71
2022/02/17 05:17:45;;;;;;;1.55;0.38;;;11.00;99.90;;;;;;5075496;28;20474;-71
2022/02/17 05:20:15;;;;;;;0.13;0.10;;;11.00;99.90;;;;;;5067223;28;20037;-71
2022/02/17 05:23:08;;;;;;;0.40;0.20;;;11.00;99.90;;;;;;5072998;28;20047;-71
2022/02/17 05:26:00;;;;;;;0.10;0.10;;;11.10;99.90;;;;;;5071980;28;20051;-71
2022/02/17 05:28:39;;;;;;;0.13;0.10;;;11.10;99.90;;;;;;5071209;28;20525;-71
2022/02/17 05:31:37;;;;;;;0.20;0.20;;;11.10;99.90;;;;;;5071151;28;20087;-71
2022/02/17 05:34:32;;;;;;;0.52;0.20;;;11.00;99.90;;;;;;5073094;28;20032;-71
2022/02/17 05:37:27;;;;;;;1.08;0.15;;;11.00;99.90;;;;;;5065137;28;20127;-72
2022/02/17 05:40:35;;;;;;;0.10;0.10;;;11.10;99.90;;;;;;5032817;28;20113;-72
2022/02/17 05:43:07;;;;;;;0.15;0.10;;;11.00;99.90;;;;;;5068027;28;20051;-74
2022/02/17 05:45:39;;;;;;;0.15;0.10;;;11.00;99.90;;;;;;5071893;28;20578;-72
2022/02/17 05:48:11;;;;;;;0.10;0.10;;;11.00;99.90;;;;;;5073792;28;20055;-73
2022/02/17 05:50:38;;;;;;;0.20;0.20;;;11.00;99.90;;;;;;5073157;28;20041;-73
2022/02/17 05:53:10;;;;;;;0.17;0.17;;;10.90;99.90;;;;;;5071236;28;20135;-73
2022/02/17 05:55:43;;;;;;;0.20;0.20;;;11.00;99.90;;;;;;5071547;28;20044;-73
2022/02/17 05:58:15;;;;;;;;;;;11.00;99.90;;;;;;5056892;28;20076;-73
2022/02/17 06:00:48;;;;;;;0.13;0.10;;;11.00;99.90;;;;;;5073446;28;19920;-73
2022/02/17 06:03:20;;;;;;;0.10;0.10;;;11.00;99.90;;;;;;5072777;28;20033;-73
2022/02/17 06:05:52;;;;;;;0.20;0.20;;;10.90;99.90;;;;;;5073585;28;20132;-73
2022/02/17 06:08:19;;;;;;;0.10;0.10;;;10.90;99.90;;;;;;5088554;28;20075;-73
2022/02/17 06:10:52;;;;;;;1.45;0.20;;;10.90;99.90;;;;;;5071966;28;20037;-73
2022/02/17 06:13:24;;;;;;;1.17;0.20;;;10.90;99.90;;;;;;5072779;28;20403;-71
2022/02/17 06:15:56;;;;;;;0.10;0.10;;;10.90;99.90;;;;;;5071822;28;20139;-73
2022/02/17 06:18:28;;;;;;;0.73;0.30;;;11.00;99.90;;;;;;5071688;28;20500;-73
2022/02/17 06:21:00;;;;;;;1.75;0.20;;;10.90;99.90;;;;;;5088065;28;20542;-73
2022/02/17 06:23:27;;;;;;;0.20;0.20;;;10.90;99.90;;;;;;5071197;28;20550;-73
2022/02/17 06:25:59;;;;;;;0.35;0.10;;;10.90;99.90;;;;;;5064800;28;20047;-73
2022/02/17 06:28:31;;;;;;;0.10;0.10;;;10.90;99.90;;;;;;5091328;28;20037;-73
2022/02/17 06:30:57;;;;;;;0.20;0.20;;;10.90;99.90;;;;;;5055364;28;20044;-73
2022/02/17 06:33:24;;;;;;;0.15;0.15;;;10.80;99.90;;;;;;5063584;28;20123;-73
2022/02/17 06:35:57;;;;;;;0.32;0.20;;;10.80;99.90;;;;;;5069681;28;20040;-73
2022/02/17 06:38:32;;;;;;;0.15;0.15;;;10.80;99.90;;;;;;5087295;28;20043;-73
2022/02/17 06:40:59;;;;;;;1.38;0.20;;;10.90;99.90;;;;;;5054686;28;20050;-73
2022/02/17 06:43:34;;;;;;;0.20;0.20;;;10.80;99.90;;;;;;5054408;28;20033;-73
2022/02/17 06:46:07;;;;;;;0.85;0.20;;;10.90;99.90;;;;;;5072510;28;20487;-73
2022/02/17 06:48:40;;;;;;;0.32;0.10;;;10.90;99.90;;;;;;5052267;28;20036;-72
2022/02/17 06:51:12;;;;;;;0.20;0.20;;;10.90;99.90;;;;;;5078205;28;20135;-73
2022/02/17 06:53:44;;;;;;;0.30;0.20;;;10.90;99.90;;;;;;5048438;28;20043;-70
2022/02/17 06:56:17;;;;;;;0.43;0.43;;;10.90;99.90;;;;;;5056573;28;20045;-73
2022/02/17 06:58:50;;;;;;;0.20;0.20;;;10.90;99.90;;;;;;5047215;28;20041;-73
2022/02/17 07:01:23;;;;;;;0.10;0.10;;;10.80;99.90;;;;;;5069037;28;20487;-72
2022/02/17 07:03:55;;;;;;;0.20;0.20;;;10.80;99.90;;;;;;5069654;28;20140;-72
2022/02/17 07:06:27;;;;;;;0.25;0.20;;;10.80;99.90;;;;;;5050431;28;20060;-73
2022/02/17 07:08:58;;;;;;;0.70;0.20;;;10.80;99.90;;;;;;5069282;28;20123;-72
2022/02/17 07:11:30;;;;;;;0.40;0.20;;;10.80;99.90;;;;;;5030994;28;20526;-72
2022/02/17 07:13:57;;;;;;;0.70;0.20;;;10.70;99.90;;;;;;5059888;28;20126;-73
2022/02/17 07:16:28;;;;;;;1.05;0.40;;;10.70;99.90;;;;;;5076606;28;20050;-73
2022/02/17 07:18:55;;;;;;;0.28;0.28;;;10.60;99.90;;;;;;5056035;28;20055;-73
2022/02/17 07:21:23;;;;;;;0.43;0.28;;;10.50;99.90;;;;;;5050084;28;20475;-73
2022/02/17 07:23:50;;;;;;;0.20;0.20;;;10.30;99.90;;;;;;5066036;28;20037;-73
2022/02/17 07:26:25;;;;;;;0.20;0.20;;;10.30;99.90;;;;;;5037910;28;20043;-73
2022/02/17 07:28:51;;;;;;;0.40;0.20;;;10.30;99.90;;;;;;5062397;28;20056;-73
2022/02/17 07:31:23;;;;;;;0.40;0.20;;;10.30;99.90;;;;;;5041685;28;20037;-73
2022/02/17 07:33:55;;;;;;;0.60;0.20;;;10.40;99.90;;;;;;5018263;28;20048;-73
2022/02/17 07:36:29;;;;;;;0.20;0.20;;;10.40;99.90;;;;;;5050179;28;20044;-72
2022/02/17 07:39:04;;;;;;;0.10;0.10;;;10.60;99.90;;;;;;5037451;28;20167;-73
2022/02/17 07:41:37;;;;;;;0.20;0.15;;;10.60;99.90;;;;;;5066420;28;20370;-72
2022/02/17 07:44:12;;;;;;;0.20;0.13;;;10.70;99.90;;;;;;5073696;28;20036;-73
2022/02/17 07:46:38;;;;;;;0.30;0.20;;;10.80;99.90;;;;;;5073884;28;20459;-72
2022/02/17 07:49:10;;;;;;;0.25;0.20;;;10.80;99.90;;;;;;5090052;28;20054;-72
2022/02/17 07:51:44;;;;;;;0.13;0.13;;;10.90;99.90;;;;;;5072370;28;20043;-72
2022/02/17 07:54:15;;;;;;;0.35;0.20;;;11.00;99.90;;;;;;5088986;28;20388;-72
2022/02/17 07:56:47;;;;;;;0.30;0.20;;;11.10;99.90;;;;;;5070465;28;20054;-72
2022/02/17 07:59:19;;;;;;;0.10;0.10;;;11.10;99.90;;;;;;5089359;28;20139;-72
2022/02/17 08:01:53;;;;;;;0.10;0.10;;;11.20;99.90;;;;;;5091030;28;20063;-72
2022/02/17 08:04:24;;;;;;;0.20;0.20;;;11.10;99.90;;;;;;5090960;28;20048;-72
2022/02/17 08:06:57;;;;;;;0.20;0.20;;;11.00;99.90;;;;;;5091328;28;20119;-73
2022/02/17 08:09:29;;;;;;;0.60;0.30;;;10.90;99.90;;;;;;5073437;28;20038;-73
2022/02/17 08:12:04;;;;;;;0.20;0.17;;;10.70;99.90;;;;;;5074904;28;20058;-73
2022/02/17 08:14:35;;;;;;;0.88;0.30;;;10.60;99.90;;;;;;5089519;28;20044;-73
2022/02/17 08:17:09;;;;;;;0.85;0.30;;;10.50;99.90;;;;;;5073372;28;20123;-73
2022/02/17 08:19:35;;;;;;;0.40;0.22;;;10.40;99.90;;;;;;5056604;28;20040;-73
2022/02/17 08:22:07;;;;;;;0.32;0.20;;;10.40;99.90;;;;;;5089972;28;20515;-74
2022/02/17 08:24:39;;;;;;;0.28;0.20;;;10.40;99.90;;;;;;5080851;28;20050;-73
2022/02/17 08:27:12;;;;;;;0.30;0.30;;;10.40;99.90;;;;;;5075076;28;20040;-73
2022/02/17 08:29:39;;;;;;;0.82;0.40;;;10.40;99.90;;;;;;5073039;28;20111;-73
2022/02/17 08:32:11;;;;;;;0.77;0.40;;;10.40;99.90;;;;;;5089782;28;20052;-73
2022/02/17 08:34:42;;;;;;;0.50;0.30;;;10.50;99.90;;;;;;5069276;28;20074;-72
2022/02/17 08:37:10;;;;;;;0.95;0.30;;;10.50;99.90;;;;;;5070004;28;20051;-73
2022/02/17 08:39:42;;;;;;;0.20;0.20;;;10.60;99.90;;;;;;5065233;28;20062;-72
2022/02/17 08:42:13;;;;;;;0.80;0.32;;;10.60;99.90;;;;;;5070271;28;20040;-73
2022/02/17 08:44:47;;;;;;;0.60;0.30;;;10.70;99.90;;;;;;5070654;28;20043;-73
2022/02/17 08:47:17;;;;;;;0.43;0.30;;;10.80;99.90;;;;;;5084207;28;20067;-73
2022/02/17 08:49:49;;;;;;;0.30;0.20;;;10.80;99.90;;;;;;5089798;28;20031;-73
2022/02/17 08:52:21;;;;;;;0.30;0.30;;;10.80;99.90;;;;;;5088550;28;20144;-72
2022/02/17 08:54:53;;;;;;;0.40;0.20;;;10.90;99.90;;;;;;5072900;28;20474;-72
2022/02/17 08:57:19;;;;;;;1.13;0.50;;;10.90;99.90;;;;;;5059594;28;20093;-72
2022/02/17 08:59:46;;;;;;;1.60;1.00;;;10.90;99.90;;;;;;5070663;28;20047;-72
2022/02/17 09:02:18;;;;;;;1.48;0.57;;;10.90;99.90;;;;;;5088930;28;20131;-73
2022/02/17 09:04:50;;;;;;;2.85;0.90;;;10.80;99.90;;;;;;5070432;28;20063;-73
2022/02/17 09:07:16;;;;;;;1.65;0.50;;;10.70;99.90;;;;;;5072623;28;20078;-73
2022/02/17 09:09:48;;;;;;;3.13;1.85;;;10.50;99.90;;;;;;5090884;28;20059;-73
2022/02/17 09:12:17;;;;;;;2.50;0.60;;;10.30;99.90;;;;;;5091837;28;20036;-73
2022/02/17 09:14:48;;;;;;;2.83;0.85;;;10.10;99.90;;;;;;5056398;28;20047;-74
2022/02/17 09:17:15;;;;;;;3.78;0.90;;;9.90;99.90;;;;;;5091076;28;20126;-74
2022/02/17 09:19:47;;;;;;;1.85;0.90;;;9.70;99.90;;;;;;5086083;28;20040;-73
2022/02/17 09:22:19;;;;;;;2.17;0.88;;;9.70;99.90;;;;;;5025504;28;20143;-74
2022/02/17 09:24:46;;;;;;;1.70;0.88;;;9.60;99.90;;;;;;5073697;28;20094;-73
2022/02/17 09:27:12;;;;;;;2.75;0.70;;;9.60;99.90;;;;;;5079129;28;20101;-73
2022/02/17 09:29:44;;;;;;;2.92;0.90;;;9.50;99.90;;;;;;5076630;28;20445;-73
2022/02/17 09:32:12;;;;;;;3.03;1.13;;;9.60;99.90;;;;;;5085104;28;20418;-73
2022/02/17 09:34:40;;;;;;;2.13;0.95;;;9.50;99.90;;;;;;5093003;28;20090;-73
2022/02/17 09:37:12;;;;;;;4.32;1.13;;;9.50;99.90;;;;;;5076216;28;20138;-73
2022/02/17 09:39:39;;;;;;;4.75;1.25;;;9.50;99.90;;;;;;5093704;28;20074;-73
2022/02/17 09:42:07;;;;;;;3.28;1.27;;;9.50;99.90;;;;;;5093020;28;20040;-73
2022/02/17 09:44:40;;;;;;;3.35;1.23;;;9.50;99.90;;;;;;5073602;28;20446;-73
2022/02/17 09:47:12;;;;;;;4.35;1.10;;;9.60;99.90;;;;;;5090986;28;20053;-73
2022/02/17 09:49:41;;;;;;;5.47;1.48;;;9.70;99.90;;;;;;5070238;28;20048;-73
2022/02/17 09:52:16;;;;;;;4.88;2.35;;;9.70;99.90;;;;;;5075881;28;20094;-73
2022/02/17 09:54:51;;;;;;;3.83;1.30;;;9.70;99.90;;;;;;5076743;28;20046;-73
2022/02/17 09:57:23;;;;;;;4.55;1.33;;;9.70;99.90;;;;;;5079784;28;20487;-73
2022/02/17 09:59:51;;;;;;;5.57;1.65;;;9.70;99.90;;;;;;5085636;28;20111;-73
2022/02/17 10:02:25;;;;;;;6.18;1.55;;;9.70;99.90;;;;;;5075033;28;20055;-73
2022/02/17 10:04:56;;;;;;;4.13;1.38;;;9.70;99.90;;;;;;5093448;28;20063;-74
2022/02/17 10:07:38;;;;;;;5.82;1.10;;;9.80;99.90;;;;;;5070666;28;20036;-73
2022/02/17 10:10:14;;;;;;;2.95;1.27;;;9.80;99.90;;;;;;5091337;28;20595;-73
2022/02/17 10:12:59;;;;;;;6.55;1.02;;;9.80;99.90;;;;;;5058359;28;20560;-73
2022/02/17 10:15:37;;;;;;;5.25;1.40;;;9.80;99.90;;;;;;5093712;28;20051;-73
2022/02/17 10:18:10;;;;;;;8.63;1.40;;;9.90;99.90;;;;;;5079579;28;20105;-73
2022/02/17 10:21:02;;;;;;;6.25;1.50;;;9.90;99.90;;;;;;5088759;28;20074;-73
2022/02/17 10:23:34;;;;;;;4.47;1.17;;;10.00;99.90;;;;;;5091285;28;20075;-73
2022/02/17 10:26:12;;;;;;;6.30;1.13;;;10.10;99.90;;;;;;5093352;28;20036;-72
2022/02/17 10:29:00;;;;;;;6.22;1.13;;;10.20;99.90;;;;;;5090373;28;20071;-72
2022/02/17 10:31:37;;;;;;;5.57;1.20;;;10.20;99.90;;;;;;5091995;28;20078;-72
2022/02/17 10:34:08;;;;;;;3.88;1.10;;;10.20;99.90;;;;;;5074673;28;20138;-72
2022/02/17 10:36:44;;;;;;;4.70;1.40;;;10.30;99.90;;;;;;5093099;28;20468;-72
2022/02/17 10:39:22;;;;;;;3.95;1.05;;;10.40;99.90;;;;;;5076548;28;20036;-72
2022/02/17 10:41:57;;;;;;;4.25;0.98;;;10.50;99.90;;;;;;5053431;28;20086;-72
2022/02/17 10:44:35;;;;;;;2.20;0.85;;;10.60;99.90;;;;;;5057330;28;20040;-72
2022/02/17 10:47:11;;;;;;;5.13;1.50;;;10.70;99.90;;;;;;5075348;28;20472;-72
2022/02/17 10:49:52;;;;;;;4.97;1.27;;;10.80;99.90;;;;;;5072597;28;20029;-72
2022/02/17 10:52:30;;;;;;;4.13;1.90;;;10.90;99.90;;;;;;5054579;28;20131;-72
2022/02/17 10:55:35;;;;;;;5.07;1.23;;;10.90;99.90;;;;;;5063165;28;20074;-72
2022/02/17 10:58:18;;;;;;;4.72;1.05;;;10.70;99.90;;;;;;5053860;28;20519;-72
2022/02/17 11:00:50;;;;;;;7.07;1.10;;;10.70;99.90;;;;;;5091207;28;20086;-72
2022/02/17 11:03:22;;;;;;;5.63;1.15;;;10.70;99.90;;;;;;5074089;28;20135;-72
2022/02/17 11:05:50;;;;;;;7.15;1.33;;;10.80;99.90;;;;;;5092853;28;20070;-72
2022/02/17 11:08:22;;;;;;;3.83;1.70;;;11.00;99.90;;;;;;5092830;28;20526;-72
2022/02/17 11:10:50;;;;;;;8.35;1.30;;;11.20;99.90;;;;;;5090917;28;20036;-72
2022/02/17 11:13:27;;;;;;;5.18;1.35;;;11.30;99.90;;;;;;5089996;28;20048;-72
2022/02/17 11:16:02;;;;;;;8.13;1.20;;;11.30;99.90;;;;;;5068962;28;20043;-72
2022/02/17 11:18:36;;;;;;;4.50;1.38;;;11.40;99.90;;;;;;5081127;28;20124;-72
2022/02/17 11:21:15;;;;;;;6.80;1.30;;;11.40;99.90;;;;;;5076125;28;20051;-72
2022/02/17 11:23:48;;;;;;;6.95;1.38;;;11.40;99.90;;;;;;5083189;28;20044;-72
2022/02/17 11:26:31;;;;;;;6.25;1.90;;;11.50;99.90;;;;;;5074719;28;20052;-72
2022/02/17 11:29:26;;;;;;;9.63;1.80;;;11.50;99.90;;;;;;5094528;28;20127;-72
2022/02/17 11:31:57;;;;;;;6.78;1.48;;;11.50;99.90;;;;;;5070897;28;20050;-72
2022/02/17 11:34:41;;;;;;;7.22;1.90;;;11.60;99.90;;;;;;5091735;28;20126;-72
2022/02/17 11:37:22;;;;;;;;;;;11.60;99.90;;;;;;5098350;28;20044;-72
2022/02/17 11:40:03;;;;;;;6.80;1.33;;;11.60;99.90;;;;;;5092512;28;19956;-72
2022/02/17 11:42:37;;;;;;;5.75;1.35;;;11.60;99.90;;;;;;5090985;28;20122;-73
2022/02/17 11:45:15;;;;;;;7.70;1.58;;;11.60;99.90;;;;;;5089654;28;20063;-73
2022/02/17 11:48:02;;;;;;;4.40;1.83;;;11.70;99.90;;;;;;5081747;28;20098;-72
2022/02/17 11:50:44;;;;;;;7.80;2.13;;;11.80;99.90;;;;;;5077635;28;20109;-72
2022/02/17 11:53:26;;;;;;;6.28;1.30;;;11.80;99.90;;;;;;5077210;28;20408;-72
2022/02/17 11:56:15;;;;;;;9.07;2.17;;;11.80;99.90;;;;;;5065498;28;20438;-72
2022/02/17 11:58:53;;;;;;;4.45;1.13;;;11.90;99.90;;;;;;5068938;28;20289;-74
2022/02/17 12:01:25;;;;;;;4.70;1.30;;;12.00;99.90;;;;;;5052442;28;20410;-72
2022/02/17 12:04:14;;;;;;;6.47;1.40;;;12.10;99.90;;;;;;5068061;28;20047;-72
2022/02/17 12:07:00;;;;;;;5.18;1.90;;;12.10;99.90;;;;;;5067946;28;20143;-72
2022/02/17 12:09:36;;;;;;;5.07;1.63;;;12.10;99.90;;;;;;5082264;28;20542;-72
2022/02/17 12:12:30;;;;;;;4.95;1.20;;;12.20;99.90;;;;;;5073223;28;20068;-72
2022/02/17 12:14:59;;;;;;;4.93;1.95;;;12.10;99.10;;;;;;5091923;28;20036;-72
2022/02/17 12:17:34;;;;;;;3.15;1.58;;;12.20;99.40;;;;;;5071624;28;20048;-72
2022/02/17 12:20:21;;;;;;;7.45;1.52;;;12.40;98.50;;;;;;5090124;28;20461;-72
2022/02/17 12:22:54;;;;;;;6.43;1.48;;;12.50;98.20;;;;;;5072354;28;20043;-72
2022/02/17 12:25:33;;;;;;;5.50;1.33;;;12.60;96.90;;;;;;5075050;28;20059;-73
2022/02/17 12:28:08;;;;;;;7.07;1.50;;;12.70;97.80;;;;;;5074945;28;20036;-72
2022/02/17 12:30:49;;;;;;;4.78;1.05;;;12.70;96.30;;;;;;5074021;28;20051;-72
2022/02/17 12:33:24;;;;;;;5.32;1.50;;;12.70;97.20;;;;;;5072477;28;20032;-72
2022/02/17 12:35:58;;;;;;;5.93;1.35;;;12.60;98.90;;;;;;5085062;28;20620;-72
2022/02/17 12:38:32;;;;;;;3.70;0.93;;;12.60;99.50;;;;;;5068846;28;20043;-72
2022/02/17 12:41:04;;;;;;;5.68;1.42;;;12.50;98.50;;;;;;5084402;28;20051;-72
2022/02/17 12:43:34;;;;;;;4.03;1.45;;;12.30;98.70;;;;;;5073398;28;20609;-72
2022/02/17 12:46:09;;;;;;;7.65;1.77;;;12.10;99.90;;;;;;5073358;28;20112;-73
2022/02/17 12:48:43;;;;;;;6.15;1.20;;;12.00;99.90;;;;;;5081839;28;20040;-72
2022/02/17 12:51:33;;;;;;;4.43;1.20;;;11.90;99.90;;;;;;5071732;28;20403;-72
2022/02/17 12:54:00;;;;;;;8.65;2.22;;;11.90;99.90;;;;;;5069661;28;20045;-72
2022/02/17 12:56:35;;;;;;;5.70;1.50;;;11.90;99.90;;;;;;5069108;28;20460;-72
2022/02/17 12:59:29;;;;;;;6.63;1.90;;;12.00;99.90;;;;;;5070497;28;20089;-72
2022/02/17 13:02:05;;;;;;;6.65;1.45;;;12.00;99.90;;;;;;5087194;28;20055;-72
2022/02/17 13:04:45;;;;;;;5.72;1.10;;;12.00;99.90;;;;;;5086864;28;20410;-72
2022/02/17 13:07:23;;;;;;;8.50;1.30;;;12.00;99.90;;;;;;5076993;28;20692;-72
2022/02/17 13:09:56;;;;;;;4.45;1.40;;;12.20;99.90;;;;;;5084239;28;20489;-73
2022/02/17 13:12:29;;;;;;;5.70;1.25;;;12.30;99.90;;;;;;5085522;28;20453;-72
2022/02/17 13:15:05;;;;;;;7.40;1.88;;;12.30;99.90;;;;;;5070933;28;20387;-72
2022/02/17 13:17:34;;;;;;;7.88;1.60;;;12.20;99.90;;;;;;5089297;28;20072;-71
2022/02/17 13:20:26;;;;;;;4.57;1.17;;;12.20;99.90;;;;;;5095423;28;20130;-72
2022/02/17 13:22:59;;;;;;;5.22;1.10;;;12.20;99.90;;;;;;5089318;28;20040;-72
2022/02/17 13:25:37;;;;;;;4.70;1.45;;;12.30;99.90;;;;;;5072602;28;20115;-72